sensor_id;sensor_type;location;lat;lon;timestamp;temperature;humidity
47626;DHT22;33342;45.574;9.252;2023-05-14T00:01:31;17.60;99.90
47626;DHT22;33342;45.574;9.252;2023-05-14T00:03:57;17.60;99.90
47626;DHT22;33342;45.574;9.252;2023-05-14T00:06:25;17.60;99.90
47626;DHT22;33342;45.574;9.252;2023-05-14T00:08:52;17.60;99.90
47626;DHT22;33342;45.574;9.252;2023-05-14T00:11:18;17.60;99.90
47626;DHT22;33342;45.574;9.252;2023-05-14T00:13:46;17.70;99.90
47626;DHT22;33342;45.574;9.252;2023-05-14T00:16:13;17.70;99.90
47626;DHT22;33342;45.574;9.252;2023-05-14T00:18:40;17.60;99.90
47626;DHT22;33342;45.574;9.252;2023-05-14T00:21:08;17.60;99.90
47626;DHT22;33342;45.574;9.252;2023-05-14T00:23:34;17.60;99.90
47626;DHT22;33342;45.574;9.252;2023-05-14T00:26:01;17.60;99.90
47626;DHT22;33342;45.574;9.252;2023-05-14T00:28:29;17.60;99.90
47626;DHT22;33342;45.574;9.252;2023-05-14T00:30:56;17.60;99.90
47626;DHT22;33342;45.574;9.252;2023-05-14T00:33:23;17.60;99.90
47626;DHT22;33342;45.574;9.252;2023-05-14T00:35:50;17.60;99.90
47626;DHT22;33342;45.574;9.252;2023-05-14T00:38:17;17.60;99.90
47626;DHT22;33342;45.574;9.252;2023-05-14T00:40:45;17.50;99.90
47626;DHT22;33342;45.574;9.252;2023-05-14T00:43:18;17.50;99.90
47626;DHT22;33342;45.574;9.252;2023-05-14T00:45:46;17.50;99.90
47626;DHT22;33342;45.574;9.252;2023-05-14T00:48:13;17.50;99.90
47626;DHT22;33342;45.574;9.252;2023-05-14T00:50:41;17.50;99.90
47626;DHT22;33342;45.574;9.252;2023-05-14T00:53:10;17.40;99.90
47626;DHT22;33342;45.574;9.252;2023-05-14T00:55:38;17.50;99.90
47626;DHT22;33342;45.574;9.252;2023-05-14T00:58:10;17.50;99.90
47626;DHT22;33342;45.574;9.252;2023-05-14T01:00:38;17.50;99.90
47626;DHT22;33342;45.574;9.252;2023-05-14T01:03:06;17.50;99.90
47626;DHT22;33342;45.574;9.252;2023-05-14T01:05:55;17.50;99.90
47626;DHT22;33342;45.574;9.252;2023-05-14T01:08:45;17.50;99.90
47626;DHT22;33342;45.574;9.252;2023-05-14T01:14:33;17.60;99.90
47626;DHT22;33342;45.574;9.252;2023-05-14T01:17:03;17.50;99.90
47626;DHT22;33342;45.574;9.252;2023-05-14T01:19:42;17.40;99.90
47626;DHT22;33342;45.574;9.252;2023-05-14T01:22:11;17.40;99.90
47626;DHT22;33342;45.574;9.252;2023-05-14T01:24:38;17.40;99.90
47626;DHT22;33342;45.574;9.252;2023-05-14T01:29:42;17.40;99.90
47626;DHT22;33342;45.574;9.252;2023-05-14T01:32:12;17.40;99.90
47626;DHT22;33342;45.574;9.252;2023-05-14T01:34:41;17.30;99.90
47626;DHT22;33342;45.574;9.252;2023-05-14T01:37:10;17.30;99.90
47626;DHT22;33342;45.574;9.252;2023-05-14T01:39:39;17.30;99.90
47626;DHT22;33342;45.574;9.252;2023-05-14T01:42:08;17.30;99.90
47626;DHT22;33342;45.574;9.252;2023-05-14T01:44:35;17.30;99.90
47626;DHT22;33342;45.574;9.252;2023-05-14T01:47:02;17.30;99.90
47626;DHT22;33342;45.574;9.252;2023-05-14T01:49:29;17.30;99.90
47626;DHT22;33342;45.574;9.252;2023-05-14T01:51:56;17.30;99.90
47626;DHT22;33342;45.574;9.252;2023-05-14T01:54:23;17.30;99.90
47626;DHT22;33342;45.574;9.252;2023-05-14T01:56:50;17.20;99.90
47626;DHT22;33342;45.574;9.252;2023-05-14T01:59:17;17.20;99.90
47626;DHT22;33342;45.574;9.252;2023-05-14T02:01:44;17.20;99.90
47626;DHT22;33342;45.574;9.252;2023-05-14T02:04:11;17.20;99.90
47626;DHT22;33342;45.574;9.252;2023-05-14T02:06:40;17.20;99.90
47626;DHT22;33342;45.574;9.252;2023-05-14T02:09:07;17.10;99.90
47626;DHT22;33342;45.574;9.252;2023-05-14T02:11:34;17.10;99.90
47626;DHT22;33342;45.574;9.252;2023-05-14T02:14:01;17.10;99.90
47626;DHT22;33342;45.574;9.252;2023-05-14T02:16:28;17.10;99.90
47626;DHT22;33342;45.574;9.252;2023-05-14T02:18:55;17.10;99.90
47626;DHT22;33342;45.574;9.252;2023-05-14T02:21:23;17.10;99.90
47626;DHT22;33342;45.574;9.252;2023-05-14T02:23:50;17.10;99.90
47626;DHT22;33342;45.574;9.252;2023-05-14T02:26:17;17.10;99.90
47626;DHT22;33342;45.574;9.252;2023-05-14T02:28:44;17.20;99.90
47626;DHT22;33342;45.574;9.252;2023-05-14T02:31:12;17.20;99.90
47626;DHT22;33342;45.574;9.252;2023-05-14T02:33:40;17.20;99.90
47626;DHT22;33342;45.574;9.252;2023-05-14T02:36:08;17.20;99.90
47626;DHT22;33342;45.574;9.252;2023-05-14T02:38:34;17.10;99.90
47626;DHT22;33342;45.574;9.252;2023-05-14T02:41:01;17.10;99.90
47626;DHT22;33342;45.574;9.252;2023-05-14T02:43:28;17.10;99.90
47626;DHT22;33342;45.574;9.252;2023-05-14T02:45:55;17.10;99.90
47626;DHT22;33342;45.574;9.252;2023-05-14T02:48:22;17.00;99.90
47626;DHT22;33342;45.574;9.252;2023-05-14T02:50:49;17.00;99.90
47626;DHT22;33342;45.574;9.252;2023-05-14T02:53:17;16.90;99.90
47626;DHT22;33342;45.574;9.252;2023-05-14T02:55:44;16.80;99.90
47626;DHT22;33342;45.574;9.252;2023-05-14T02:58:11;16.80;99.90
47626;DHT22;33342;45.574;9.252;2023-05-14T03:00:38;16.70;99.90
47626;DHT22;33342;45.574;9.252;2023-05-14T03:03:06;16.70;99.90
47626;DHT22;33342;45.574;9.252;2023-05-14T03:05:34;16.70;99.90
47626;DHT22;33342;45.574;9.252;2023-05-14T03:08:01;16.70;99.90
47626;DHT22;33342;45.574;9.252;2023-05-14T03:10:28;16.60;99.90
47626;DHT22;33342;45.574;9.252;2023-05-14T03:12:55;16.60;99.90
47626;DHT22;33342;45.574;9.252;2023-05-14T03:15:22;16.60;99.90
47626;DHT22;33342;45.574;9.252;2023-05-14T03:17:49;16.50;99.90
47626;DHT22;33342;45.574;9.252;2023-05-14T03:20:16;16.40;99.90
47626;DHT22;33342;45.574;9.252;2023-05-14T03:22:43;16.40;99.90
47626;DHT22;33342;45.574;9.252;2023-05-14T03:25:10;16.40;99.90
47626;DHT22;33342;45.574;9.252;2023-05-14T03:27:37;16.40;99.90
47626;DHT22;33342;45.574;9.252;2023-05-14T03:30:05;16.40;99.90
47626;DHT22;33342;45.574;9.252;2023-05-14T03:32:32;16.40;99.90
47626;DHT22;33342;45.574;9.252;2023-05-14T03:34:59;16.40;99.90
47626;DHT22;33342;45.574;9.252;2023-05-14T03:37:26;16.40;99.90
47626;DHT22;33342;45.574;9.252;2023-05-14T03:39:53;16.40;99.90
47626;DHT22;33342;45.574;9.252;2023-05-14T03:42:20;16.40;99.90
47626;DHT22;33342;45.574;9.252;2023-05-14T03:44:47;16.40;99.90
47626;DHT22;33342;45.574;9.252;2023-05-14T03:47:14;16.40;99.90
47626;DHT22;33342;45.574;9.252;2023-05-14T03:49:41;16.40;99.90
47626;DHT22;33342;45.574;9.252;2023-05-14T03:52:10;16.40;99.90
47626;DHT22;33342;45.574;9.252;2023-05-14T03:54:37;16.40;99.90
47626;DHT22;33342;45.574;9.252;2023-05-14T03:57:04;16.40;99.90
47626;DHT22;33342;45.574;9.252;2023-05-14T03:59:31;16.40;99.90
47626;DHT22;33342;45.574;9.252;2023-05-14T04:01:58;16.40;99.90
47626;DHT22;33342;45.574;9.252;2023-05-14T04:04:25;16.40;99.90
47626;DHT22;33342;45.574;9.252;2023-05-14T04:06:52;16.40;99.90
47626;DHT22;33342;45.574;9.252;2023-05-14T04:09:19;16.30;99.90
47626;DHT22;33342;45.574;9.252;2023-05-14T04:11:46;16.30;99.90
47626;DHT22;33342;45.574;9.252;2023-05-14T04:14:13;16.30;99.90
47626;DHT22;33342;45.574;9.252;2023-05-14T04:16:41;16.20;99.90
47626;DHT22;33342;45.574;9.252;2023-05-14T04:19:09;16.30;99.90
47626;DHT22;33342;45.574;9.252;2023-05-14T04:21:37;16.30;99.90
47626;DHT22;33342;45.574;9.252;2023-05-14T04:24:04;16.30;99.90
47626;DHT22;33342;45.574;9.252;2023-05-14T04:26:31;16.30;99.90
47626;DHT22;33342;45.574;9.252;2023-05-14T04:28:58;16.20;99.90
47626;DHT22;33342;45.574;9.252;2023-05-14T04:31:29;16.20;99.90
47626;DHT22;33342;45.574;9.252;2023-05-14T04:33:56;16.10;99.90
47626;DHT22;33342;45.574;9.252;2023-05-14T04:36:23;16.10;99.90
47626;DHT22;33342;45.574;9.252;2023-05-14T04:38:50;16.10;99.90
47626;DHT22;33342;45.574;9.252;2023-05-14T04:41:17;16.10;99.90
47626;DHT22;33342;45.574;9.252;2023-05-14T04:43:45;16.00;99.90
47626;DHT22;33342;45.574;9.252;2023-05-14T04:46:12;16.00;99.90
47626;DHT22;33342;45.574;9.252;2023-05-14T04:48:40;15.90;99.90
47626;DHT22;33342;45.574;9.252;2023-05-14T04:51:07;16.00;99.90
47626;DHT22;33342;45.574;9.252;2023-05-14T04:53:34;16.00;99.90
47626;DHT22;33342;45.574;9.252;2023-05-14T04:56:01;16.00;99.90
47626;DHT22;33342;45.574;9.252;2023-05-14T04:58:28;16.00;99.90
47626;DHT22;33342;45.574;9.252;2023-05-14T05:01:01;16.00;99.90
47626;DHT22;33342;45.574;9.252;2023-05-14T05:03:28;15.90;99.90
47626;DHT22;33342;45.574;9.252;2023-05-14T05:05:55;15.90;99.90
47626;DHT22;33342;45.574;9.252;2023-05-14T05:08:22;15.90;99.90
47626;DHT22;33342;45.574;9.252;2023-05-14T05:10:49;15.90;99.90
47626;DHT22;33342;45.574;9.252;2023-05-14T05:13:16;15.90;99.90
47626;DHT22;33342;45.574;9.252;2023-05-14T05:15:43;15.90;99.90
47626;DHT22;33342;45.574;9.252;2023-05-14T05:18:10;15.90;99.90
47626;DHT22;33342;45.574;9.252;2023-05-14T05:20:37;16.00;99.90
47626;DHT22;33342;45.574;9.252;2023-05-14T05:23:04;16.00;99.90
47626;DHT22;33342;45.574;9.252;2023-05-14T05:25:31;16.00;99.90
47626;DHT22;33342;45.574;9.252;2023-05-14T05:27:58;16.00;99.90
47626;DHT22;33342;45.574;9.252;2023-05-14T05:30:25;16.00;99.90
47626;DHT22;33342;45.574;9.252;2023-05-14T05:32:52;16.00;99.90
47626;DHT22;33342;45.574;9.252;2023-05-14T05:35:19;16.00;99.90
47626;DHT22;33342;45.574;9.252;2023-05-14T05:37:46;16.00;99.90
47626;DHT22;33342;45.574;9.252;2023-05-14T05:40:13;16.00;99.90
47626;DHT22;33342;45.574;9.252;2023-05-14T05:42:41;16.00;99.90
47626;DHT22;33342;45.574;9.252;2023-05-14T05:45:08;15.90;99.90
47626;DHT22;33342;45.574;9.252;2023-05-14T05:47:35;15.90;99.90
47626;DHT22;33342;45.574;9.252;2023-05-14T05:50:03;15.90;99.90
47626;DHT22;33342;45.574;9.252;2023-05-14T05:52:30;15.90;99.90
47626;DHT22;33342;45.574;9.252;2023-05-14T05:54:57;15.90;99.90
47626;DHT22;33342;45.574;9.252;2023-05-14T05:57:24;15.90;99.90
47626;DHT22;33342;45.574;9.252;2023-05-14T05:59:52;15.90;99.90
47626;DHT22;33342;45.574;9.252;2023-05-14T06:02:19;15.90;99.90
47626;DHT22;33342;45.574;9.252;2023-05-14T06:04:47;15.90;99.90
47626;DHT22;33342;45.574;9.252;2023-05-14T06:07:14;15.90;99.90
47626;DHT22;33342;45.574;9.252;2023-05-14T06:09:41;15.90;99.90
47626;DHT22;33342;45.574;9.252;2023-05-14T06:12:08;15.90;99.90
47626;DHT22;33342;45.574;9.252;2023-05-14T06:14:35;15.90;99.90
47626;DHT22;33342;45.574;9.252;2023-05-14T06:17:02;16.00;99.90
47626;DHT22;33342;45.574;9.252;2023-05-14T06:19:29;16.00;99.90
47626;DHT22;33342;45.574;9.252;2023-05-14T06:21:56;16.00;99.90
47626;DHT22;33342;45.574;9.252;2023-05-14T06:24:23;16.00;99.90
47626;DHT22;33342;45.574;9.252;2023-05-14T06:26:50;16.00;99.90
47626;DHT22;33342;45.574;9.252;2023-05-14T06:29:17;16.00;99.90
47626;DHT22;33342;45.574;9.252;2023-05-14T06:31:44;16.10;99.90
47626;DHT22;33342;45.574;9.252;2023-05-14T06:34:12;16.20;99.90
47626;DHT22;33342;45.574;9.252;2023-05-14T06:36:39;16.20;99.90
47626;DHT22;33342;45.574;9.252;2023-05-14T06:39:06;16.20;99.90
47626;DHT22;33342;45.574;9.252;2023-05-14T06:41:33;16.30;99.90
47626;DHT22;33342;45.574;9.252;2023-05-14T06:44:00;16.30;99.90
47626;DHT22;33342;45.574;9.252;2023-05-14T06:46:27;16.30;99.90
47626;DHT22;33342;45.574;9.252;2023-05-14T06:48:54;16.20;99.90
47626;DHT22;33342;45.574;9.252;2023-05-14T06:51:25;16.30;99.90
47626;DHT22;33342;45.574;9.252;2023-05-14T06:53:52;16.30;99.90
47626;DHT22;33342;45.574;9.252;2023-05-14T06:56:20;16.40;99.90
47626;DHT22;33342;45.574;9.252;2023-05-14T06:58:47;16.40;99.90
47626;DHT22;33342;45.574;9.252;2023-05-14T07:01:15;16.40;99.90
47626;DHT22;33342;45.574;9.252;2023-05-14T07:03:42;16.40;99.90
47626;DHT22;33342;45.574;9.252;2023-05-14T07:06:09;16.50;99.90
47626;DHT22;33342;45.574;9.252;2023-05-14T07:08:39;16.50;99.90
47626;DHT22;33342;45.574;9.252;2023-05-14T07:11:06;16.60;99.90
47626;DHT22;33342;45.574;9.252;2023-05-14T07:13:33;16.70;99.90
47626;DHT22;33342;45.574;9.252;2023-05-14T07:16:00;16.70;99.90
47626;DHT22;33342;45.574;9.252;2023-05-14T07:18:27;16.70;99.90
47626;DHT22;33342;45.574;9.252;2023-05-14T07:20:54;16.70;99.90
47626;DHT22;33342;45.574;9.252;2023-05-14T07:23:21;16.70;99.90
47626;DHT22;33342;45.574;9.252;2023-05-14T07:25:48;16.70;99.90
47626;DHT22;33342;45.574;9.252;2023-05-14T07:28:15;16.80;99.90
47626;DHT22;33342;45.574;9.252;2023-05-14T07:30:42;16.80;99.90
47626;DHT22;33342;45.574;9.252;2023-05-14T07:33:09;16.90;99.90
47626;DHT22;33342;45.574;9.252;2023-05-14T07:35:36;16.90;99.90
47626;DHT22;33342;45.574;9.252;2023-05-14T07:38:03;17.00;99.90
47626;DHT22;33342;45.574;9.252;2023-05-14T07:40:31;17.00;99.90
47626;DHT22;33342;45.574;9.252;2023-05-14T07:42:58;17.10;99.90
47626;DHT22;33342;45.574;9.252;2023-05-14T07:45:25;17.20;99.90
47626;DHT22;33342;45.574;9.252;2023-05-14T07:47:52;17.30;99.90
47626;DHT22;33342;45.574;9.252;2023-05-14T07:50:19;17.40;99.90
47626;DHT22;33342;45.574;9.252;2023-05-14T07:52:46;17.40;99.90
47626;DHT22;33342;45.574;9.252;2023-05-14T07:55:13;17.50;99.90
47626;DHT22;33342;45.574;9.252;2023-05-14T07:57:40;17.50;99.90
47626;DHT22;33342;45.574;9.252;2023-05-14T08:00:08;17.60;99.90
47626;DHT22;33342;45.574;9.252;2023-05-14T08:02:38;17.60;99.90
47626;DHT22;33342;45.574;9.252;2023-05-14T08:05:05;17.70;99.90
47626;DHT22;33342;45.574;9.252;2023-05-14T08:07:33;17.70;99.90
47626;DHT22;33342;45.574;9.252;2023-05-14T08:10:00;17.70;99.90
47626;DHT22;33342;45.574;9.252;2023-05-14T08:12:29;17.70;99.90
47626;DHT22;33342;45.574;9.252;2023-05-14T08:14:56;17.70;99.90
47626;DHT22;33342;45.574;9.252;2023-05-14T08:17:23;17.70;99.90
47626;DHT22;33342;45.574;9.252;2023-05-14T08:19:50;17.60;99.90
47626;DHT22;33342;45.574;9.252;2023-05-14T08:22:17;17.60;99.90
47626;DHT22;33342;45.574;9.252;2023-05-14T08:24:44;17.60;99.90
47626;DHT22;33342;45.574;9.252;2023-05-14T08:27:10;17.60;99.90
47626;DHT22;33342;45.574;9.252;2023-05-14T08:29:37;17.70;99.90
47626;DHT22;33342;45.574;9.252;2023-05-14T08:32:04;17.60;99.90
47626;DHT22;33342;45.574;9.252;2023-05-14T08:34:48;17.60;99.90
47626;DHT22;33342;45.574;9.252;2023-05-14T08:37:16;17.60;99.90
47626;DHT22;33342;45.574;9.252;2023-05-14T08:39:43;17.70;99.90
47626;DHT22;33342;45.574;9.252;2023-05-14T08:42:12;17.70;99.90
47626;DHT22;33342;45.574;9.252;2023-05-14T08:45:01;17.70;99.90
47626;DHT22;33342;45.574;9.252;2023-05-14T08:47:29;17.80;99.90
47626;DHT22;33342;45.574;9.252;2023-05-14T08:50:04;17.80;99.90
47626;DHT22;33342;45.574;9.252;2023-05-14T08:52:33;17.90;99.90
47626;DHT22;33342;45.574;9.252;2023-05-14T08:55:03;17.90;99.90
47626;DHT22;33342;45.574;9.252;2023-05-14T08:57:32;17.90;99.90
47626;DHT22;33342;45.574;9.252;2023-05-14T09:00:01;17.90;99.90
47626;DHT22;33342;45.574;9.252;2023-05-14T09:02:34;17.90;99.90
47626;DHT22;33342;45.574;9.252;2023-05-14T09:05:02;17.90;99.90
47626;DHT22;33342;45.574;9.252;2023-05-14T09:07:30;17.90;99.90
47626;DHT22;33342;45.574;9.252;2023-05-14T09:09:57;17.90;99.90
47626;DHT22;33342;45.574;9.252;2023-05-14T09:12:24;17.90;99.90
47626;DHT22;33342;45.574;9.252;2023-05-14T09:14:52;17.90;99.90
47626;DHT22;33342;45.574;9.252;2023-05-14T09:17:19;17.80;99.90
47626;DHT22;33342;45.574;9.252;2023-05-14T09:19:46;17.80;99.90
47626;DHT22;33342;45.574;9.252;2023-05-14T09:22:19;17.80;99.90
47626;DHT22;33342;45.574;9.252;2023-05-14T09:25:01;17.80;99.90
47626;DHT22;33342;45.574;9.252;2023-05-14T09:27:30;17.90;99.90
47626;DHT22;33342;45.574;9.252;2023-05-14T09:30:11;17.90;99.90
47626;DHT22;33342;45.574;9.252;2023-05-14T09:32:42;18.00;99.90
47626;DHT22;33342;45.574;9.252;2023-05-14T09:35:17;18.00;99.90
47626;DHT22;33342;45.574;9.252;2023-05-14T09:37:54;18.00;99.90
47626;DHT22;33342;45.574;9.252;2023-05-14T09:40:22;18.20;99.90
47626;DHT22;33342;45.574;9.252;2023-05-14T09:42:50;18.20;99.90
47626;DHT22;33342;45.574;9.252;2023-05-14T09:45:17;18.30;99.90
47626;DHT22;33342;45.574;9.252;2023-05-14T09:47:44;18.30;99.90
47626;DHT22;33342;45.574;9.252;2023-05-14T09:50:12;18.40;99.90
47626;DHT22;33342;45.574;9.252;2023-05-14T09:52:39;18.50;99.90
47626;DHT22;33342;45.574;9.252;2023-05-14T09:55:06;18.50;99.90
47626;DHT22;33342;45.574;9.252;2023-05-14T09:57:34;18.50;99.90
47626;DHT22;33342;45.574;9.252;2023-05-14T10:00:01;18.60;99.90
47626;DHT22;33342;45.574;9.252;2023-05-14T10:02:37;18.70;99.90
47626;DHT22;33342;45.574;9.252;2023-05-14T10:05:05;18.70;99.90
47626;DHT22;33342;45.574;9.252;2023-05-14T10:07:37;18.80;99.90
47626;DHT22;33342;45.574;9.252;2023-05-14T10:10:06;18.90;99.90
47626;DHT22;33342;45.574;9.252;2023-05-14T10:12:38;19.00;99.90
47626;DHT22;33342;45.574;9.252;2023-05-14T10:15:12;19.00;99.90
47626;DHT22;33342;45.574;9.252;2023-05-14T10:17:47;19.10;99.90
47626;DHT22;33342;45.574;9.252;2023-05-14T10:20:15;19.20;99.90
47626;DHT22;33342;45.574;9.252;2023-05-14T10:22:43;19.20;99.90
47626;DHT22;33342;45.574;9.252;2023-05-14T10:25:11;19.20;99.90
47626;DHT22;33342;45.574;9.252;2023-05-14T10:27:38;19.20;99.90
47626;DHT22;33342;45.574;9.252;2023-05-14T10:30:10;19.10;99.90
47626;DHT22;33342;45.574;9.252;2023-05-14T10:32:39;19.10;99.90
47626;DHT22;33342;45.574;9.252;2023-05-14T10:35:18;19.10;99.90
47626;DHT22;33342;45.574;9.252;2023-05-14T10:37:51;19.00;99.90
47626;DHT22;33342;45.574;9.252;2023-05-14T10:40:19;19.00;99.90
47626;DHT22;33342;45.574;9.252;2023-05-14T10:42:49;19.00;99.90
47626;DHT22;33342;45.574;9.252;2023-05-14T10:45:16;18.90;99.90
47626;DHT22;33342;45.574;9.252;2023-05-14T10:47:45;18.90;99.90
47626;DHT22;33342;45.574;9.252;2023-05-14T10:50:14;18.80;99.90
47626;DHT22;33342;45.574;9.252;2023-05-14T10:52:42;18.80;99.90
47626;DHT22;33342;45.574;9.252;2023-05-14T10:55:12;18.80;99.90
47626;DHT22;33342;45.574;9.252;2023-05-14T10:57:42;18.80;99.90
47626;DHT22;33342;45.574;9.252;2023-05-14T11:00:10;18.80;99.90
47626;DHT22;33342;45.574;9.252;2023-05-14T11:02:39;18.80;99.90
47626;DHT22;33342;45.574;9.252;2023-05-14T11:05:09;18.80;99.90
47626;DHT22;33342;45.574;9.252;2023-05-14T11:10:13;18.90;99.90
47626;DHT22;33342;45.574;9.252;2023-05-14T11:12:42;19.00;99.90
47626;DHT22;33342;45.574;9.252;2023-05-14T11:15:20;19.10;99.90
47626;DHT22;33342;45.574;9.252;2023-05-14T11:17:48;19.20;99.90
47626;DHT22;33342;45.574;9.252;2023-05-14T11:20:16;19.30;99.90
47626;DHT22;33342;45.574;9.252;2023-05-14T11:22:45;19.40;99.90
47626;DHT22;33342;45.574;9.252;2023-05-14T11:25:13;19.40;99.90
47626;DHT22;33342;45.574;9.252;2023-05-14T11:27:42;19.40;99.90
47626;DHT22;33342;45.574;9.252;2023-05-14T11:30:18;19.40;99.90
47626;DHT22;33342;45.574;9.252;2023-05-14T11:32:46;19.40;99.90
47626;DHT22;33342;45.574;9.252;2023-05-14T11:35:13;19.30;99.90
47626;DHT22;33342;45.574;9.252;2023-05-14T11:37:41;19.30;99.90
47626;DHT22;33342;45.574;9.252;2023-05-14T11:40:14;19.40;99.90
47626;DHT22;33342;45.574;9.252;2023-05-14T11:42:42;19.40;99.90
47626;DHT22;33342;45.574;9.252;2023-05-14T11:45:10;19.40;99.90
47626;DHT22;33342;45.574;9.252;2023-05-14T11:47:40;19.50;99.90
47626;DHT22;33342;45.574;9.252;2023-05-14T11:50:07;19.50;99.90
47626;DHT22;33342;45.574;9.252;2023-05-14T11:52:39;19.70;99.90
47626;DHT22;33342;45.574;9.252;2023-05-14T11:55:11;19.80;99.90
47626;DHT22;33342;45.574;9.252;2023-05-14T11:57:39;19.80;99.90
47626;DHT22;33342;45.574;9.252;2023-05-14T12:00:10;19.90;99.90
47626;DHT22;33342;45.574;9.252;2023-05-14T12:02:47;19.90;99.90
47626;DHT22;33342;45.574;9.252;2023-05-14T12:05:15;20.00;99.90
47626;DHT22;33342;45.574;9.252;2023-05-14T12:07:46;20.10;99.90
47626;DHT22;33342;45.574;9.252;2023-05-14T12:10:14;20.10;99.90
47626;DHT22;33342;45.574;9.252;2023-05-14T12:12:44;20.10;99.90
47626;DHT22;33342;45.574;9.252;2023-05-14T12:15:13;20.20;99.90
47626;DHT22;33342;45.574;9.252;2023-05-14T12:17:41;20.20;99.90
47626;DHT22;33342;45.574;9.252;2023-05-14T12:20:09;20.30;99.90
47626;DHT22;33342;45.574;9.252;2023-05-14T12:22:36;20.30;99.90
47626;DHT22;33342;45.574;9.252;2023-05-14T12:25:10;20.30;99.90
47626;DHT22;33342;45.574;9.252;2023-05-14T12:27:38;20.30;99.90
47626;DHT22;33342;45.574;9.252;2023-05-14T12:30:06;20.30;99.90
47626;DHT22;33342;45.574;9.252;2023-05-14T12:32:37;20.40;99.90
47626;DHT22;33342;45.574;9.252;2023-05-14T12:35:07;20.40;99.90
47626;DHT22;33342;45.574;9.252;2023-05-14T12:37:35;20.50;99.90
47626;DHT22;33342;45.574;9.252;2023-05-14T12:40:03;20.50;99.90
47626;DHT22;33342;45.574;9.252;2023-05-14T12:42:35;20.50;99.90
47626;DHT22;33342;45.574;9.252;2023-05-14T12:45:02;20.50;99.90
47626;DHT22;33342;45.574;9.252;2023-05-14T12:47:34;20.50;99.90
47626;DHT22;33342;45.574;9.252;2023-05-14T12:50:03;20.50;99.90
47626;DHT22;33342;45.574;9.252;2023-05-14T12:52:30;20.40;99.90
47626;DHT22;33342;45.574;9.252;2023-05-14T12:55:06;20.40;99.90
47626;DHT22;33342;45.574;9.252;2023-05-14T12:57:33;20.40;99.90
47626;DHT22;33342;45.574;9.252;2023-05-14T13:00:02;20.40;99.90
47626;DHT22;33342;45.574;9.252;2023-05-14T13:02:33;20.40;99.90
47626;DHT22;33342;45.574;9.252;2023-05-14T13:05:10;20.50;99.90
47626;DHT22;33342;45.574;9.252;2023-05-14T13:07:37;20.50;99.90
47626;DHT22;33342;45.574;9.252;2023-05-14T13:10:05;20.60;99.90
47626;DHT22;33342;45.574;9.252;2023-05-14T13:12:32;20.60;99.90
47626;DHT22;33342;45.574;9.252;2023-05-14T13:14:59;20.60;99.90
47626;DHT22;33342;45.574;9.252;2023-05-14T13:17:26;20.70;99.90
47626;DHT22;33342;45.574;9.252;2023-05-14T13:19:53;20.80;99.90
47626;DHT22;33342;45.574;9.252;2023-05-14T13:22:20;20.80;99.90
47626;DHT22;33342;45.574;9.252;2023-05-14T13:24:47;20.90;99.90
47626;DHT22;33342;45.574;9.252;2023-05-14T13:27:14;20.90;99.90
47626;DHT22;33342;45.574;9.252;2023-05-14T13:29:41;21.00;99.90
47626;DHT22;33342;45.574;9.252;2023-05-14T13:32:08;21.00;99.90
47626;DHT22;33342;45.574;9.252;2023-05-14T13:34:36;21.10;99.90
47626;DHT22;33342;45.574;9.252;2023-05-14T13:37:03;21.20;99.90
47626;DHT22;33342;45.574;9.252;2023-05-14T13:39:30;21.20;99.90
47626;DHT22;33342;45.574;9.252;2023-05-14T13:41:57;21.20;99.90
47626;DHT22;33342;45.574;9.252;2023-05-14T13:44:24;21.20;99.90
47626;DHT22;33342;45.574;9.252;2023-05-14T13:46:51;21.30;99.90
47626;DHT22;33342;45.574;9.252;2023-05-14T13:49:18;21.40;99.90
47626;DHT22;33342;45.574;9.252;2023-05-14T13:51:45;21.40;99.90
47626;DHT22;33342;45.574;9.252;2023-05-14T13:54:12;21.40;99.90
47626;DHT22;33342;45.574;9.252;2023-05-14T13:56:39;21.40;99.90
47626;DHT22;33342;45.574;9.252;2023-05-14T13:59:06;21.50;99.90
47626;DHT22;33342;45.574;9.252;2023-05-14T14:01:33;21.50;99.90
47626;DHT22;33342;45.574;9.252;2023-05-14T14:04:00;21.50;99.90
47626;DHT22;33342;45.574;9.252;2023-05-14T14:06:29;21.50;99.90
47626;DHT22;33342;45.574;9.252;2023-05-14T14:08:57;21.60;99.90
47626;DHT22;33342;45.574;9.252;2023-05-14T14:11:24;21.70;99.90
47626;DHT22;33342;45.574;9.252;2023-05-14T14:13:51;21.90;99.90
47626;DHT22;33342;45.574;9.252;2023-05-14T14:16:18;22.00;99.90
47626;DHT22;33342;45.574;9.252;2023-05-14T14:18:45;22.10;99.90
47626;DHT22;33342;45.574;9.252;2023-05-14T14:21:12;22.10;99.90
47626;DHT22;33342;45.574;9.252;2023-05-14T14:23:40;22.00;99.90
47626;DHT22;33342;45.574;9.252;2023-05-14T14:26:07;21.90;99.90
47626;DHT22;33342;45.574;9.252;2023-05-14T14:28:34;21.80;99.90
47626;DHT22;33342;45.574;9.252;2023-05-14T14:31:01;21.70;99.90
47626;DHT22;33342;45.574;9.252;2023-05-14T14:33:28;21.60;99.90
47626;DHT22;33342;45.574;9.252;2023-05-14T14:35:55;21.50;99.90
47626;DHT22;33342;45.574;9.252;2023-05-14T14:38:23;21.50;99.90
47626;DHT22;33342;45.574;9.252;2023-05-14T14:40:50;21.40;99.90
47626;DHT22;33342;45.574;9.252;2023-05-14T14:43:17;21.30;99.90
47626;DHT22;33342;45.574;9.252;2023-05-14T14:45:44;21.30;99.90
47626;DHT22;33342;45.574;9.252;2023-05-14T14:48:43;21.20;99.90
47626;DHT22;33342;45.574;9.252;2023-05-14T14:51:10;21.10;99.90
47626;DHT22;33342;45.574;9.252;2023-05-14T14:53:37;21.00;99.90
47626;DHT22;33342;45.574;9.252;2023-05-14T14:56:04;21.00;99.90
47626;DHT22;33342;45.574;9.252;2023-05-14T14:58:31;20.90;99.90
47626;DHT22;33342;45.574;9.252;2023-05-14T15:00:59;20.90;99.90
47626;DHT22;33342;45.574;9.252;2023-05-14T15:03:27;20.80;99.90
47626;DHT22;33342;45.574;9.252;2023-05-14T15:05:54;20.80;99.90
47626;DHT22;33342;45.574;9.252;2023-05-14T15:08:24;20.80;99.90
47626;DHT22;33342;45.574;9.252;2023-05-14T15:10:55;20.70;99.90
47626;DHT22;33342;45.574;9.252;2023-05-14T15:13:22;20.70;99.90
47626;DHT22;33342;45.574;9.252;2023-05-14T15:15:50;20.70;99.90
47626;DHT22;33342;45.574;9.252;2023-05-14T15:18:25;20.70;99.90
47626;DHT22;33342;45.574;9.252;2023-05-14T15:20:52;20.70;99.90
47626;DHT22;33342;45.574;9.252;2023-05-14T15:23:19;20.60;99.90
47626;DHT22;33342;45.574;9.252;2023-05-14T15:25:46;20.60;99.90
47626;DHT22;33342;45.574;9.252;2023-05-14T15:28:15;20.60;99.90
47626;DHT22;33342;45.574;9.252;2023-05-14T15:30:42;20.50;99.90
47626;DHT22;33342;45.574;9.252;2023-05-14T15:33:09;20.40;99.90
47626;DHT22;33342;45.574;9.252;2023-05-14T15:35:36;20.30;99.90
47626;DHT22;33342;45.574;9.252;2023-05-14T15:38:03;20.20;99.90
47626;DHT22;33342;45.574;9.252;2023-05-14T15:40:30;20.10;99.90
47626;DHT22;33342;45.574;9.252;2023-05-14T15:42:58;20.00;99.90
47626;DHT22;33342;45.574;9.252;2023-05-14T15:45:25;19.80;99.90